This is the latest recevied weather packets stored in our database for station/object W4SMH. If no packets are shown the sender has not sent any weather packets the latest 10 day(s).
| Time | Temp. | Humidity | Pressure | Rain* | Wind** | Luminosity | Snow |
|---|---|---|---|---|---|---|---|
| 1777915099 | 23.89° C | 34% | 997.9 hPa | 0 mm | - | 960 W/m² | - |
| 1777914893 | 23.89° C | 34% | 997.9 hPa | 0 mm | - | 935 W/m² | - |
| 1777913931 | 23.33° C | 35% | 998.2 hPa | 0 mm | - | 893 W/m² | - |
| 1777913085 | 7.22° C | 63% | 1012.8 hPa | 0 mm | - | 0 W/m² | - |
| 1777912962 | 23.89° C | 36% | 998.6 hPa | 0 mm | - | 935 W/m² | - |
| 1777912705 | 23.33° C | 38% | 998.7 hPa | 0 mm | - | 905 W/m² | - |
| 1777912637 | 23.33° C | 34% | 998.7 hPa | 0 mm | - | 907 W/m² | - |
| 1777912486 | 7.78° C | 63% | 1013 hPa | 0 mm | - | 0 W/m² | - |
| 1777912432 | 8.33° C | 61% | 1013.2 hPa | 0 mm | - | 0 W/m² | - |
| 1777912051 | 8.89° C | 60% | 1013.3 hPa | 0 mm | - | 0 W/m² | - |
| 1777912016 | 8.89° C | 58% | 1013.4 hPa | 0 mm | - | 0 W/m² | - |
| 1777911867 | 23.33° C | 32% | 998.9 hPa | 0 mm | - | 905 W/m² | - |
| 1777911432 | 23.33° C | 38% | 999 hPa | 0 mm | - | 884 W/m² | - |
| 1777911384 | 10° C | 54% | 1012.9 hPa | 0 mm | - | 0 W/m² | - |
| 1777911296 | 23.33° C | 35% | 999 hPa | 0 mm | - | 889 W/m² | - |
| 1777911096 | 22.78° C | 39% | 999 hPa | 0 mm | - | 881 W/m² | - |
| 1777910811 | 22.78° C | 41% | 999.1 hPa | 0 mm | - | 874 W/m² | - |
| 1777910705 | 22.78° C | 36% | 999.2 hPa | 0 mm | - | 865 W/m² | - |
| 1777910674 | 22.78° C | 36% | 999.1 hPa | 0 mm | - | 865 W/m² | - |
| 1777909671 | 11.11° C | 50% | 1013 hPa | 0 mm | - | 0 W/m² | - |
| 1777909587 | 12.22° C | 45% | 1013 hPa | 0 mm | - | 12 W/m² | - |
| 1777909554 | 22.78° C | 39% | 999.2 hPa | 0 mm | - | 844 W/m² | - |
| 1777908726 | 22.78° C | 38% | 999.5 hPa | 0 mm | - | 802 W/m² | - |
| 1777908443 | 22.22° C | 40% | 999.5 hPa | 0 mm | - | 789 W/m² | - |
| 1777908387 | 22.22° C | 40% | 999.5 hPa | 0 mm | - | 786 W/m² | - |
* Rain latest hour (hover to see other rain measurements)
** Current wind speed in m/s (hover to see current wind gust speed)